createdAt,value
2022-10-12T00:00:16.809Z,7.67
2022-10-12T00:02:43.645Z,7.68
2022-10-12T00:05:10.404Z,7.69
2022-10-12T00:07:37.309Z,7.54
2022-10-12T00:10:04.575Z,7.53
2022-10-12T00:12:31.093Z,7.53
2022-10-12T00:14:57.909Z,7.53
2022-10-12T00:17:24.418Z,7.56
2022-10-12T00:19:50.930Z,7.56
2022-10-12T00:22:17.430Z,7.53
2022-10-12T00:24:43.998Z,7.50
2022-10-12T00:27:10.500Z,7.48
2022-10-12T00:29:36.951Z,7.38
2022-10-12T00:32:03.751Z,7.37
2022-10-12T00:34:30.247Z,7.34
2022-10-12T00:36:56.910Z,7.40
2022-10-12T00:39:23.510Z,7.39
2022-10-12T00:41:50.187Z,7.36
2022-10-12T00:44:36.700Z,7.18
2022-10-12T00:47:10.891Z,7.20
2022-10-12T00:49:37.632Z,7.22
2022-10-12T00:52:08.813Z,7.25
2022-10-12T00:54:41.869Z,7.28
2022-10-12T00:57:11.375Z,7.19
2022-10-12T00:59:45.914Z,7.23
2022-10-12T01:02:13.808Z,7.05
2022-10-12T01:04:41.390Z,7.12
2022-10-12T01:07:07.891Z,7.01
2022-10-12T01:09:34.666Z,7.12
2022-10-12T01:12:04.087Z,7.08
2022-10-12T01:14:30.587Z,7.10
2022-10-12T01:17:15.681Z,7.11
2022-10-12T01:20:05.673Z,7.10
2022-10-12T01:22:41.422Z,7.15
2022-10-12T01:25:58.729Z,7.18
2022-10-12T01:28:41.942Z,7.18
2022-10-12T01:31:38.498Z,7.30
2022-10-12T01:34:24.573Z,7.23
2022-10-12T01:37:11.553Z,7.18
2022-10-12T01:39:48.168Z,7.11
2022-10-12T01:42:21.488Z,6.86
2022-10-12T01:44:47.983Z,6.81
2022-10-12T01:47:14.749Z,6.94
2022-10-12T01:49:41.319Z,6.86
2022-10-12T01:52:26.035Z,6.63
2022-10-12T01:54:52.522Z,6.63
2022-10-12T01:57:31.930Z,6.68
2022-10-12T02:00:16.860Z,6.66
2022-10-12T02:03:01.906Z,6.66
2022-10-12T02:05:50.831Z,6.64
2022-10-12T02:08:30.730Z,6.54
2022-10-12T02:11:05.779Z,6.79
2022-10-12T02:13:36.233Z,6.78
2022-10-12T02:16:07.687Z,6.76
2022-10-12T02:18:38.557Z,6.78
2022-10-12T02:21:06.878Z,6.71
2022-10-12T02:23:35.265Z,6.69
2022-10-12T02:26:02.955Z,6.61
2022-10-12T02:28:34.845Z,6.59
2022-10-12T02:31:19.513Z,6.48
2022-10-12T02:34:01.479Z,6.46
2022-10-12T02:36:53.090Z,6.62
2022-10-12T02:39:33.677Z,6.58
2022-10-12T02:42:08.186Z,6.44
2022-10-12T02:44:38.274Z,6.57
2022-10-12T02:47:08.414Z,6.52
2022-10-12T02:49:36.567Z,6.54
2022-10-12T02:52:07.536Z,6.46
2022-10-12T02:54:34.250Z,6.43
2022-10-12T02:57:00.997Z,6.41
2022-10-12T02:59:27.585Z,6.38
2022-10-12T03:01:54.286Z,6.36
2022-10-12T03:04:20.835Z,6.33
2022-10-12T03:06:47.386Z,6.22
2022-10-12T03:09:14.295Z,6.23
2022-10-12T03:11:44.612Z,6.28
2022-10-12T03:14:12.503Z,6.25
2022-10-12T03:16:39.001Z,6.15
2022-10-12T03:19:05.572Z,6.21
2022-10-12T03:21:32.102Z,6.22
2022-10-12T03:23:58.617Z,6.17
2022-10-12T03:26:25.457Z,6.11
2022-10-12T03:28:52.064Z,6.10
2022-10-12T03:31:18.662Z,6.04
2022-10-12T03:33:45.192Z,6.06
2022-10-12T03:36:11.753Z,6.04
2022-10-12T03:38:38.370Z,5.96
2022-10-12T03:41:06.897Z,6.08
2022-10-12T03:43:34.294Z,6.10
2022-10-12T03:46:00.869Z,6.11
2022-10-12T03:48:27.523Z,6.08
2022-10-12T03:50:54.094Z,6.10
2022-10-12T03:53:20.731Z,6.08
2022-10-12T03:55:47.307Z,6.05
2022-10-12T03:58:14.032Z,6.09
2022-10-12T04:00:40.650Z,6.08
2022-10-12T04:03:07.228Z,6.09
2022-10-12T04:05:33.848Z,6.11
2022-10-12T04:08:00.395Z,6.14
2022-10-12T04:10:26.990Z,6.05
2022-10-12T04:12:53.525Z,6.13
2022-10-12T04:15:20.151Z,6.14
2022-10-12T04:17:46.724Z,6.12
2022-10-12T04:20:13.766Z,6.18
2022-10-12T04:22:40.397Z,6.19
2022-10-12T04:25:07.361Z,6.19
2022-10-12T04:27:33.985Z,6.16
2022-10-12T04:30:00.461Z,6.15
2022-10-12T04:32:27.169Z,6.13
2022-10-12T04:34:53.800Z,6.12
2022-10-12T04:37:20.341Z,6.02
2022-10-12T04:39:46.964Z,6.04
2022-10-12T04:42:13.496Z,6.04
2022-10-12T04:44:39.998Z,6.10
2022-10-12T04:47:06.625Z,6.08
2022-10-12T04:49:33.126Z,6.18
2022-10-12T04:51:59.621Z,6.19
2022-10-12T04:54:26.135Z,6.14
2022-10-12T04:56:52.692Z,6.12
2022-10-12T04:59:19.262Z,6.02
2022-10-12T05:01:46.010Z,5.85
2022-10-12T05:04:12.569Z,5.99
2022-10-12T05:06:39.100Z,5.96
2022-10-12T05:09:05.631Z,5.93
2022-10-12T05:11:32.115Z,5.89
2022-10-12T05:13:58.839Z,5.80
2022-10-12T05:16:25.406Z,5.71
2022-10-12T05:18:52.060Z,5.77
2022-10-12T05:21:18.560Z,5.71
2022-10-12T05:23:45.079Z,5.81
2022-10-12T05:26:11.669Z,5.66
2022-10-12T05:28:41.083Z,5.60
2022-10-12T05:31:08.208Z,5.78
2022-10-12T05:33:34.762Z,5.72
2022-10-12T05:36:01.367Z,5.80
2022-10-12T05:38:27.897Z,5.71
2022-10-12T05:40:59.365Z,5.78
2022-10-12T05:43:27.374Z,5.82
2022-10-12T05:45:53.929Z,5.81
2022-10-12T05:48:20.431Z,5.75
2022-10-12T05:50:46.949Z,5.86
2022-10-12T05:53:13.703Z,5.83
2022-10-12T05:55:40.331Z,6.02
2022-10-12T05:58:06.947Z,6.04
2022-10-12T06:00:33.560Z,5.94
2022-10-12T06:03:00.091Z,5.99
2022-10-12T06:05:26.656Z,6.02
2022-10-12T06:07:53.197Z,6.08
2022-10-12T06:10:19.668Z,6.07
2022-10-12T06:12:46.311Z,6.14
2022-10-12T06:15:12.943Z,5.97
2022-10-12T06:17:39.503Z,6.14
2022-10-12T06:20:06.505Z,6.18
2022-10-12T06:22:32.995Z,6.20
2022-10-12T06:24:59.496Z,6.18
2022-10-12T06:27:26.003Z,6.18
2022-10-12T06:29:52.528Z,6.06
2022-10-12T06:32:19.089Z,6.05
2022-10-12T06:34:46.567Z,6.26
2022-10-12T06:37:25.269Z,6.20
2022-10-12T06:39:59.558Z,6.14
2022-10-12T06:42:26.084Z,6.05
2022-10-12T06:44:52.687Z,6.33
2022-10-12T06:47:19.218Z,6.34
2022-10-12T06:49:45.748Z,6.33
2022-10-12T06:52:12.290Z,6.48
2022-10-12T06:54:39.169Z,6.52
2022-10-12T06:57:06.287Z,6.60
2022-10-12T06:59:33.016Z,6.70
2022-10-12T07:01:59.635Z,6.77
2022-10-12T07:04:26.229Z,6.86
2022-10-12T07:06:52.990Z,7.08
2022-10-12T07:09:19.549Z,7.35
2022-10-12T07:11:46.072Z,7.61
2022-10-12T07:14:12.580Z,7.87
2022-10-12T07:16:39.084Z,8.22
2022-10-12T07:19:05.620Z,8.38
2022-10-12T07:21:32.210Z,8.47
2022-10-12T07:23:58.786Z,8.50
2022-10-12T07:26:25.375Z,8.63
2022-10-12T07:28:51.960Z,8.81
2022-10-12T07:31:18.545Z,8.95
2022-10-12T07:33:45.103Z,9.05
2022-10-12T07:36:14.800Z,9.42
2022-10-12T07:38:45.282Z,9.65
2022-10-12T07:41:12.607Z,9.85
2022-10-12T07:43:39.278Z,9.90
2022-10-12T07:46:05.856Z,9.91
2022-10-12T07:48:33.103Z,10.04
2022-10-12T07:51:10.329Z,10.18
2022-10-12T07:53:38.624Z,10.20
2022-10-12T07:56:07.789Z,10.10
2022-10-12T07:58:34.297Z,10.09
2022-10-12T08:01:08.238Z,10.09
2022-10-12T08:03:34.950Z,10.14
2022-10-12T08:06:09.524Z,10.38
2022-10-12T08:08:36.307Z,10.44
2022-10-12T08:11:03.185Z,10.40
2022-10-12T08:13:29.730Z,10.35
2022-10-12T08:15:56.242Z,10.30
2022-10-12T08:18:22.801Z,10.34
2022-10-12T08:20:49.393Z,10.31
2022-10-12T08:23:16.007Z,10.17
2022-10-12T08:25:44.050Z,10.06
2022-10-12T08:28:10.573Z,10.06
2022-10-12T08:30:38.911Z,9.87
2022-10-12T08:33:10.133Z,10.01
2022-10-12T08:35:40.998Z,10.04
2022-10-12T08:38:09.017Z,9.96
2022-10-12T08:40:42.018Z,9.97
2022-10-12T08:43:25.925Z,10.25
2022-10-12T08:46:01.045Z,10.38
2022-10-12T08:48:35.991Z,10.45
2022-10-12T08:51:06.808Z,10.47
2022-10-12T08:53:45.088Z,10.32
2022-10-12T08:56:11.683Z,10.55
2022-10-12T08:58:39.352Z,10.62
2022-10-12T09:01:27.752Z,10.73
2022-10-12T09:04:29.396Z,10.82
2022-10-12T09:07:01.957Z,11.00
2022-10-12T09:09:46.798Z,10.99
2022-10-12T09:12:26.903Z,11.28
2022-10-12T09:15:00.579Z,11.38
2022-10-12T09:17:32.913Z,11.44
2022-10-12T09:20:04.311Z,11.50
2022-10-12T09:22:31.425Z,11.53
2022-10-12T09:24:59.209Z,11.64
2022-10-12T09:27:30.692Z,11.81
2022-10-12T09:30:01.582Z,11.85
2022-10-12T09:32:39.085Z,11.99
2022-10-12T09:35:08.219Z,12.18
2022-10-12T09:37:35.769Z,12.18
2022-10-12T09:40:02.629Z,12.38
2022-10-12T09:42:29.271Z,12.36
2022-10-12T09:45:12.495Z,12.50
2022-10-12T09:47:39.974Z,12.78
2022-10-12T09:50:07.882Z,12.83
2022-10-12T09:52:37.334Z,13.07
2022-10-12T09:58:02.732Z,13.24
2022-10-12T10:00:32.049Z,13.28
2022-10-12T10:02:59.955Z,13.31
2022-10-12T10:05:34.966Z,13.44
2022-10-12T10:08:13.868Z,13.59
2022-10-12T10:10:53.822Z,13.62
2022-10-12T10:13:22.892Z,13.83
2022-10-12T10:16:04.176Z,13.94
2022-10-12T10:18:43.209Z,13.93
2022-10-12T10:21:12.959Z,14.07
2022-10-12T10:23:45.615Z,14.12
2022-10-12T10:26:15.857Z,14.15
2022-10-12T10:28:45.180Z,14.35
2022-10-12T10:31:16.295Z,14.48
2022-10-12T10:33:44.056Z,14.51
2022-10-12T10:36:23.219Z,14.69
2022-10-12T10:39:21.152Z,14.64
2022-10-12T10:41:48.680Z,14.72
2022-10-12T10:44:30.906Z,14.86
2022-10-12T10:47:08.081Z,14.89
2022-10-12T10:49:39.851Z,14.68
2022-10-12T10:52:19.985Z,14.69
2022-10-12T10:54:46.595Z,14.63
2022-10-12T10:57:23.689Z,14.72
2022-10-12T10:59:50.254Z,15.00
2022-10-12T11:02:28.567Z,15.13
2022-10-12T11:05:17.043Z,15.35
2022-10-12T11:08:02.693Z,15.37
2022-10-12T11:10:42.323Z,15.69
2022-10-12T11:13:37.756Z,15.81
2022-10-12T11:16:12.379Z,15.93
2022-10-12T11:18:44.947Z,15.94
2022-10-12T11:21:21.691Z,15.99
2022-10-12T11:23:57.180Z,15.98
2022-10-12T11:26:36.006Z,15.96
2022-10-12T11:29:02.736Z,16.19
2022-10-12T11:31:42.275Z,16.29
2022-10-12T11:34:16.868Z,16.47
2022-10-12T11:37:07.484Z,16.80
2022-10-12T11:39:46.150Z,17.10
2022-10-12T11:42:22.192Z,17.32
2022-10-12T11:44:50.188Z,17.31
2022-10-12T11:47:38.659Z,16.97
2022-10-12T11:50:20.588Z,16.78
2022-10-12T11:52:50.721Z,16.67
2022-10-12T11:55:31.728Z,16.83
2022-10-12T11:58:07.634Z,17.05
2022-10-12T12:01:00.705Z,17.26
2022-10-12T12:03:35.087Z,17.37
2022-10-12T12:06:29.396Z,17.45
2022-10-12T12:08:59.019Z,17.11
2022-10-12T12:11:32.098Z,16.98
2022-10-12T12:14:21.496Z,17.25
2022-10-12T12:16:49.563Z,17.39
2022-10-12T12:19:17.558Z,17.51
2022-10-12T12:22:13.423Z,17.65
2022-10-12T12:24:41.535Z,17.79
2022-10-12T12:27:43.411Z,17.90
2022-10-12T12:30:19.188Z,17.72
2022-10-12T12:32:52.371Z,17.61
2022-10-12T12:35:41.207Z,17.42
2022-10-12T12:38:13.403Z,17.53
2022-10-12T12:40:41.986Z,17.51
2022-10-12T12:43:56.113Z,17.67
2022-10-12T12:46:25.591Z,17.90
2022-10-12T12:48:52.049Z,18.00
2022-10-12T12:51:25.349Z,17.90
2022-10-12T12:53:58.246Z,18.04
2022-10-12T12:56:55.267Z,18.14
2022-10-12T12:59:42.042Z,18.17
2022-10-12T13:02:36.594Z,17.95
2022-10-12T13:05:19.691Z,17.79
2022-10-12T13:08:05.888Z,17.57
2022-10-12T13:10:42.036Z,17.35
2022-10-12T13:14:03.001Z,17.39
2022-10-12T13:19:55.152Z,17.44
2022-10-12T13:22:35.477Z,17.48
2022-10-12T13:25:04.423Z,17.52
2022-10-12T13:27:51.824Z,17.65
2022-10-12T13:30:33.076Z,17.60
2022-10-12T13:33:21.102Z,17.36
2022-10-12T13:35:54.556Z,17.43
2022-10-12T13:38:23.952Z,17.46
2022-10-12T13:41:12.229Z,17.47
2022-10-12T13:43:47.647Z,17.51
2022-10-12T13:46:39.674Z,17.46
2022-10-12T13:49:14.300Z,17.26
2022-10-12T13:51:43.309Z,17.23
2022-10-12T13:54:25.053Z,17.10
2022-10-12T13:56:59.253Z,17.19
2022-10-12T13:59:28.395Z,17.39
2022-10-12T14:02:00.996Z,17.42
2022-10-12T14:04:30.526Z,17.42
2022-10-12T14:07:16.368Z,17.43
2022-10-12T14:09:46.574Z,17.48
2022-10-12T14:12:15.618Z,17.40
2022-10-12T14:14:45.333Z,17.43
2022-10-12T14:17:16.761Z,17.22
2022-10-12T14:19:46.861Z,17.18
2022-10-12T14:22:31.061Z,16.89
2022-10-12T14:25:24.667Z,16.95
2022-10-12T14:28:00.451Z,16.90
2022-10-12T14:30:30.953Z,16.91
2022-10-12T14:33:12.675Z,16.89
2022-10-12T14:35:42.227Z,16.74
2022-10-12T14:38:40.123Z,16.84
2022-10-12T14:41:28.666Z,16.78
2022-10-12T14:44:18.879Z,16.81
2022-10-12T14:46:53.667Z,16.81
2022-10-12T14:49:25.862Z,16.83
2022-10-12T14:51:54.922Z,16.81
2022-10-12T14:54:21.953Z,16.87
2022-10-12T14:56:48.459Z,16.88
2022-10-12T14:59:15.041Z,16.86
2022-10-12T15:01:43.496Z,16.79
2022-10-12T15:04:15.337Z,16.62
2022-10-12T15:06:41.895Z,16.76
2022-10-12T15:09:08.445Z,16.73
2022-10-12T15:11:34.975Z,16.65
2022-10-12T15:14:01.535Z,16.53
2022-10-12T15:16:28.908Z,16.58
2022-10-12T15:18:55.580Z,16.55
2022-10-12T15:21:22.315Z,16.53
2022-10-12T15:23:48.997Z,16.47
2022-10-12T15:26:17.688Z,16.41
2022-10-12T15:28:44.857Z,16.31
2022-10-12T15:31:18.209Z,16.10
2022-10-12T15:33:45.909Z,16.16
2022-10-12T15:36:12.518Z,16.17
2022-10-12T15:38:39.155Z,16.10
2022-10-12T15:41:06.201Z,16.03
2022-10-12T15:43:35.620Z,16.00
2022-10-12T15:46:04.818Z,15.96
2022-10-12T15:48:31.451Z,15.95
2022-10-12T15:50:58.004Z,15.78
2022-10-12T15:53:25.842Z,15.92
2022-10-12T15:55:54.100Z,15.79
2022-10-12T15:58:21.651Z,15.78
2022-10-12T16:00:48.659Z,15.87
2022-10-12T16:03:22.923Z,15.81
2022-10-12T16:05:52.445Z,15.78
2022-10-12T16:08:19.033Z,15.61
2022-10-12T16:10:48.045Z,15.57
2022-10-12T16:13:15.940Z,15.55
2022-10-12T16:15:42.988Z,15.66
2022-10-12T16:18:11.549Z,15.63
2022-10-12T16:20:39.279Z,15.55
2022-10-12T16:23:09.506Z,15.48
2022-10-12T16:25:36.165Z,15.40
2022-10-12T16:28:02.723Z,15.38
2022-10-12T16:30:29.300Z,15.35
2022-10-12T16:32:55.940Z,15.21
2022-10-12T16:35:22.811Z,15.27
2022-10-12T16:37:49.517Z,15.19
2022-10-12T16:40:16.463Z,15.19
2022-10-12T16:42:43.103Z,15.00
2022-10-12T16:45:10.257Z,15.11
2022-10-12T16:47:42.730Z,15.13
2022-10-12T16:50:10.593Z,15.17
2022-10-12T16:52:37.641Z,15.15
2022-10-12T16:55:05.452Z,15.14
2022-10-12T16:57:32.203Z,15.13
2022-10-12T16:59:58.984Z,15.14
2022-10-12T17:02:29.671Z,15.14
2022-10-12T17:04:56.410Z,15.19
2022-10-12T17:07:23.119Z,15.20
2022-10-12T17:09:49.744Z,15.16
2022-10-12T17:12:16.610Z,15.14
2022-10-12T17:14:43.301Z,15.11
2022-10-12T17:17:09.834Z,15.08
2022-10-12T17:19:40.757Z,15.07
2022-10-12T17:22:09.534Z,15.06
2022-10-12T17:24:40.448Z,15.05
2022-10-12T17:27:08.936Z,15.02
2022-10-12T17:29:36.757Z,14.97
2022-10-12T17:32:04.157Z,14.93
2022-10-12T17:34:33.448Z,14.85
2022-10-12T17:37:01.936Z,14.85
2022-10-12T17:39:31.588Z,14.74
2022-10-12T17:41:58.431Z,14.79
2022-10-12T17:44:25.668Z,14.71
2022-10-12T17:46:52.505Z,14.63
2022-10-12T17:49:24.418Z,14.57
2022-10-12T17:51:51.490Z,14.58
2022-10-12T17:54:23.373Z,14.56
2022-10-12T17:56:49.932Z,14.43
2022-10-12T17:59:18.096Z,14.49
2022-10-12T18:01:45.036Z,14.45
2022-10-12T18:04:12.706Z,14.43
2022-10-12T18:06:40.267Z,14.37
2022-10-12T18:09:08.347Z,14.39
2022-10-12T18:11:35.818Z,14.34
2022-10-12T18:14:02.443Z,14.30
2022-10-12T18:16:32.366Z,14.11
2022-10-12T18:19:01.103Z,14.13
2022-10-12T18:21:29.702Z,14.16
2022-10-12T18:23:56.526Z,14.12
2022-10-12T18:26:23.396Z,14.04
2022-10-12T18:28:51.541Z,13.93
2022-10-12T18:31:20.510Z,14.01
2022-10-12T18:33:47.551Z,13.95
2022-10-12T18:36:14.918Z,13.83
2022-10-12T18:38:41.625Z,13.81
2022-10-12T18:41:13.242Z,13.85
2022-10-12T18:43:39.886Z,13.83
2022-10-12T18:46:11.626Z,13.79
2022-10-12T18:48:38.930Z,13.74
2022-10-12T18:51:08.445Z,13.57
2022-10-12T18:53:35.034Z,13.65
2022-10-12T18:56:05.140Z,13.59
2022-10-12T18:58:31.822Z,13.41
2022-10-12T19:00:58.770Z,13.47
2022-10-12T19:03:25.822Z,13.44
2022-10-12T19:05:52.466Z,13.36
2022-10-12T19:08:19.069Z,13.34
2022-10-12T19:10:45.709Z,13.29
2022-10-12T19:13:12.281Z,13.23
2022-10-12T19:15:38.850Z,13.17
2022-10-12T19:18:05.948Z,13.15
2022-10-12T19:20:35.721Z,13.09
2022-10-12T19:23:02.229Z,12.98
2022-10-12T19:25:28.817Z,12.95
2022-10-12T19:27:55.632Z,12.79
2022-10-12T19:30:22.319Z,12.85
2022-10-12T19:32:48.941Z,12.68
2022-10-12T19:35:15.502Z,12.76
2022-10-12T19:37:42.078Z,12.70
2022-10-12T19:40:12.526Z,12.69
2022-10-12T19:42:39.242Z,12.51
2022-10-12T19:45:06.244Z,12.54
2022-10-12T19:47:34.798Z,12.56
2022-10-12T19:50:01.732Z,12.49
2022-10-12T19:52:28.325Z,12.33
2022-10-12T19:54:54.899Z,12.42
2022-10-12T19:57:21.618Z,12.22
2022-10-12T19:59:48.176Z,12.34
2022-10-12T20:02:14.806Z,12.16
2022-10-12T20:04:42.594Z,12.29
2022-10-12T20:07:11.911Z,12.24
2022-10-12T20:09:40.109Z,12.20
2022-10-12T20:12:06.778Z,12.15
2022-10-12T20:14:36.592Z,12.05
2022-10-12T20:17:03.096Z,12.01
2022-10-12T20:19:29.753Z,11.97
2022-10-12T20:21:56.304Z,11.82
2022-10-12T20:24:23.832Z,11.86
2022-10-12T20:26:50.476Z,11.83
2022-10-12T20:29:17.038Z,11.74
2022-10-12T20:31:43.738Z,11.71
2022-10-12T20:34:10.312Z,11.68
2022-10-12T20:36:36.888Z,11.71
2022-10-12T20:39:03.722Z,11.59
2022-10-12T20:41:30.650Z,11.55
2022-10-12T20:43:59.353Z,11.63
2022-10-12T20:46:26.802Z,11.51
2022-10-12T20:48:58.728Z,11.52
2022-10-12T20:51:29.050Z,11.40
2022-10-12T20:53:59.085Z,11.50
2022-10-12T20:56:26.237Z,11.49
2022-10-12T20:58:55.392Z,11.49
2022-10-12T21:01:22.963Z,11.46
2022-10-12T21:03:49.605Z,11.46
2022-10-12T21:06:17.317Z,11.32
2022-10-12T21:08:43.893Z,11.22
2022-10-12T21:11:11.104Z,11.22
2022-10-12T21:13:40.969Z,11.25
2022-10-12T21:16:09.078Z,11.30
2022-10-12T21:18:38.156Z,11.35
2022-10-12T21:21:16.168Z,11.38
2022-10-12T21:23:51.606Z,11.24
2022-10-12T21:26:20.403Z,11.20
2022-10-12T21:28:47.145Z,11.29
2022-10-12T21:31:14.366Z,11.26
2022-10-12T21:33:41.285Z,11.14
2022-10-12T21:36:13.644Z,11.23
2022-10-12T21:38:41.749Z,11.20
2022-10-12T21:41:10.885Z,11.06
2022-10-12T21:43:38.484Z,11.17
2022-10-12T21:46:10.607Z,11.15
2022-10-12T21:48:37.586Z,11.15
2022-10-12T21:51:04.342Z,10.97
2022-10-12T21:53:31.767Z,11.08
2022-10-12T21:55:58.281Z,11.03
2022-10-12T21:58:24.850Z,11.04
2022-10-12T22:00:51.504Z,10.98
2022-10-12T22:03:18.212Z,10.99
2022-10-12T22:05:45.072Z,10.94
2022-10-12T22:08:11.728Z,10.89
2022-10-12T22:10:39.229Z,10.90
2022-10-12T22:13:06.825Z,10.85
2022-10-12T22:15:33.655Z,10.74
2022-10-12T22:18:00.232Z,10.70
2022-10-12T22:20:26.759Z,10.69
2022-10-12T22:22:53.415Z,10.48
2022-10-12T22:25:19.919Z,10.48
2022-10-12T22:27:46.465Z,10.56
2022-10-12T22:30:13.085Z,10.54
2022-10-12T22:32:39.608Z,10.42
2022-10-12T22:35:06.699Z,10.36
2022-10-12T22:37:33.288Z,10.35
2022-10-12T22:40:00.128Z,10.31
2022-10-12T22:42:26.787Z,10.31
2022-10-12T22:44:53.456Z,10.14
2022-10-12T22:47:21.199Z,10.09
2022-10-12T22:49:47.956Z,10.22
2022-10-12T22:52:14.769Z,10.08
2022-10-12T22:54:41.283Z,10.07
2022-10-12T22:57:07.901Z,10.08
2022-10-12T22:59:34.437Z,10.07
2022-10-12T23:02:00.989Z,10.00
2022-10-12T23:04:27.581Z,9.80
2022-10-12T23:06:54.086Z,9.83
2022-10-12T23:09:20.755Z,9.80
2022-10-12T23:11:49.658Z,9.72
2022-10-12T23:14:16.189Z,9.74
2022-10-12T23:16:42.791Z,9.70
2022-10-12T23:19:09.909Z,9.70
2022-10-12T23:21:36.482Z,9.54
2022-10-12T23:24:04.973Z,9.58
2022-10-12T23:26:31.781Z,9.61
2022-10-12T23:28:58.377Z,9.61
2022-10-12T23:31:28.159Z,9.58
2022-10-12T23:34:04.358Z,9.62
2022-10-12T23:36:31.548Z,9.63
2022-10-12T23:39:00.971Z,9.59
2022-10-12T23:41:27.516Z,9.47
2022-10-12T23:43:54.057Z,9.53
2022-10-12T23:46:20.641Z,9.56
2022-10-12T23:48:47.190Z,9.53
2022-10-12T23:51:13.941Z,9.48
2022-10-12T23:53:41.961Z,9.21
2022-10-12T23:56:08.552Z,9.37
2022-10-12T23:58:35.334Z,9.36
